• Join FlightAware (Why Join?)
  • Login
  • US Flag 
03:58AM EDT


 

Airport Tracker/Info


-or-


 

Live Flight TrackerFlight Track Log ✈ VH-NTE ✈ 10-Jun-2013 ✈ YSCR / SQC - YPJT / JAD

Flight Track Log - Related Links

Times and Time Zones

All times are in EDT time to prevent confusion due to time zone crossing. See the VH-NTE flight status page for this flight to view local times or setup timezone preferences in your user account.

Time Position Orientation Groundspeed Altitude Reporting Facility
EDT Latitude Longitude Course Direction KTS MPH feet Rate Location/Type
11:05PM -31.2528 119.2500 254° West 14,000  Level Aus ATC (Calculated)
11:06PM -31.2528 119.2500 254° West 14,000  Level Aus ATC (Calculated)
11:07PM -31.2528 119.2500 254° West 14,000  Level Aus ATC (Calculated)
11:08PM -31.2731 119.1441 254° West 14,000  Level Aus ATC (Calculated)
11:08PM -31.2731 119.1440 254° West 14,000  Level Aus ATC (Calculated)
11:09PM -31.2787 119.1151 257° West  Level FlightAware Approximate
11:10PM -31.2917 119.0468 257° West  Level FlightAware Approximate
11:10PM -31.3136 118.9320 251° West 14,000  Level Aus ATC (Calculated)
11:11PM -31.3056 118.9737 257° West  Level FlightAware Approximate
11:12PM -31.3194 118.9007 257° West  Level FlightAware Approximate
11:12PM -31.3336 118.8259 247° West 14,000  Level Aus ATC (Calculated)
11:13PM -31.3425 118.7786 257° West  Level FlightAware Approximate
11:13PM -31.3336 118.8259 247° West 14,000  Level Aus ATC (Calculated)
11:15PM -31.3540 118.7176 258° West  Level FlightAware Approximate
11:16PM -31.3677 118.6445 258° West  Level FlightAware Approximate
11:17PM -31.3814 118.5713 258° West  Level FlightAware Approximate
11:17PM -31.3941 118.6570 258° West 214 246 14,300  Level Aus ATC (RADAR)
11:17PM -31.4024 118.6109 258° West 215 247 14,300  Level Aus ATC (RADAR)
11:18PM -31.3972 118.5753 280° West 215 247 14,300  Level Aus ATC (RADAR)
11:19PM -31.4176 118.5054 251° West 220 253 14,300  Level Aus ATC (RADAR)
11:20PM -31.4259 118.4347 262° West 215 247 14,300  Level Aus ATC (RADAR)
11:20PM -31.4331 118.3884 260° West 214 246 14,300  Level Aus ATC (RADAR)
11:21PM -31.4429 118.3243 260° West 214 246 14,300  Level Aus ATC (RADAR)
11:22PM -31.4514 118.2656 260° West 215 247 14,300  Level Aus ATC (RADAR)
11:23PM -31.4594 118.2188 259° West 217 250 14,300  Level Aus ATC (RADAR)
11:23PM -31.4627 118.1953 261° West 215 247 14,300  Level Aus ATC (RADAR)
11:24PM -31.4707 118.1481 259° West 217 250 14,300  Level Aus ATC (RADAR)
11:25PM -31.4794 118.0894 260° West 217 250 14,300  Level Aus ATC (RADAR)
11:25PM -31.4872 118.0422 259° West 219 252 14,300  Level Aus ATC (RADAR)
11:26PM -31.4983 117.9707 260° West 220 253 14,300  Level Aus ATC (RADAR)
11:27PM -31.5061 117.9238 259° West 217 250 14,300  Level Aus ATC (RADAR)
11:28PM -31.5166 117.8533 260° West 216 249 14,300  Level Aus ATC (RADAR)
11:28PM -31.5204 117.8299 259° West 217 250 14,300  Level Aus ATC (RADAR)
11:29PM -31.5279 117.7824 260° West 219 252 14,300  Level Aus ATC (RADAR)
11:30PM -31.5360 117.7229 261° West 219 252 14,300  Level Aus ATC (RADAR)
11:30PM -31.5433 117.6813 258° West 219 252 14,300  Level Aus ATC (RADAR)
11:31PM -31.5658 117.6152 248° West 218 251 14,300  Level Aus ATC (RADAR)
11:32PM -31.5872 117.5750 238° Southwest 218 251 14,300  Level Aus ATC (RADAR)
11:33PM -31.6161 117.5120 242° Southwest 218 251 14,300  Level Aus ATC (RADAR)
11:33PM -31.6260 117.4907 241° Southwest 219 252 14,300  Level Aus ATC (RADAR)
11:34PM -31.6461 117.4492 240° Southwest 217 250 14,300  Level Aus ATC (RADAR)
11:35PM -31.6708 117.3975 241° Southwest 217 250 14,300  Level Aus ATC (RADAR)
11:36PM -31.6905 117.3552 241° Southwest 220 253 14,300  Level Aus ATC (RADAR)
11:36PM -31.7155 117.3028 241° Southwest 220 253 14,300  Level Aus ATC (RADAR)
11:37PM -31.7304 117.2717 241° Southwest 215 247 14,300  Level Aus ATC (RADAR)
11:38PM -31.7647 117.1977 241° Southwest 219 252 14,300  Level Aus ATC (RADAR)
11:38PM -31.7754 117.1771 239° Southwest 219 252 14,300  Level Aus ATC (RADAR)
11:39PM -31.7913 117.1463 239° Southwest 219 252 14,300  Level Aus ATC (RADAR)
11:40PM -31.8229 117.0770 242° Southwest 219 252 14,300  Level Aus ATC (RADAR)
11:41PM -31.8413 117.0402 240° Southwest 221 254 14,300  Level Aus ATC (RADAR)
11:42PM -31.8764 116.9658 241° Southwest 222 255 14,300  Level Aus ATC (RADAR)
11:42PM -31.8924 116.9272 244° Southwest 224 258 14,300  Level Aus ATC (RADAR)
11:44PM -31.8963 116.8261 267° West 227 261 14,300  Level Aus ATC (RADAR)
11:44PM -31.8973 116.8008 267° West 228 262 14,300  Level Aus ATC (RADAR)
11:45PM -31.8991 116.7565 267° West 228 262 14,300 -960 Level Aus ATC (RADAR)
11:46PM -31.8998 116.6804 269° West 248 285 12,900 -1,560 Descending Aus ATC (RADAR)
11:46PM -31.8893 116.6385 286° West 256 295 12,100 -1,560 Descending Aus ATC (RADAR)
11:47PM -31.8791 116.5536 278° West 251 289 10,600 -1,440 Descending Aus ATC (RADAR)
11:48PM -31.8818 116.4992 267° West 240 276 9,700 -1,560 Descending Aus ATC (RADAR)
11:49PM -31.8841 116.3951 269° West 251 289 7,700 -1,440 Descending Aus ATC (RADAR)
11:50PM -31.8866 116.3381 267° West 250 288 7,000 -660 Descending Aus ATC (RADAR)
11:50PM -31.8917 116.2711 265° West 238 274 6,800 -480 Descending Aus ATC (RADAR)
11:51PM -31.8954 116.2186 265° West 236 272 6,300 -480 Descending Aus ATC (RADAR)
11:52PM -31.8899 116.1404 275° West 229 264 6,000 -180 Descending Aus ATC (RADAR)
11:53PM -31.8795 116.0919 284° West 223 257 6,000  Level Aus ATC (RADAR)
11:54PM -31.8813 116.0208 268° West 209 241 6,000  Level Aus ATC (RADAR)
11:54PM -31.8832 116.0049 262° West 200 230 6,000 -780 Level Aus ATC (RADAR)
11:55PM -31.8882 115.9611 262° West 199 229 5,300 -900 Descending Aus ATC (RADAR)
11:55PM -31.8944 115.9070 262° West 192 221 4,700 -1,380 Descending Aus ATC (RADAR)
11:56PM -31.8981 115.8613 264° West 200 230 3,300 -1,680 Descending Aus ATC (RADAR)
11:57PM -31.9319 115.8306 218° Southwest 192 221 2,200 -1,140 Descending Aus ATC (RADAR)
11:57PM -31.9521 115.8312 178° South 179 206 1,900 -600 Descending Aus ATC (RADAR)
11:58PM -31.9921 115.8469 162° South 163 188 1,400 -240 Descending Aus ATC (RADAR)
11:59PM -32.0149 115.8550 163° South 147 169 1,600 180 Climbing Aus ATC (RADAR)
11:59PM -32.0276 115.8590 165° South 143 165 1,600  Level Aus ATC (RADAR)
12:01AM -32.0974 115.8812 319° Northwest  Level FlightAware Approximate
12:08AM -32.0975 115.8811 319° Northwest  Level Estimated
12:09AM -32.0975 115.8811 319° Northwest  Level Estimated
12:10AM -32.0975 115.8811 319° Northwest  Level Estimated
12:11AM -32.0975 115.8811 319° Northwest  Level Estimated
12:12AM -32.0975 115.8811 319° Northwest  Level Estimated
12:13AM -32.0975 115.8811 319° Northwest  Level Estimated